Centerville, Utah
Current Conditions -  °F | °C
As of 7:36 AM on Sunday 23 Nov 2014 (Local Time) from KSLC Reporting Station
Light Snow Light Snow  
Wind Chill: -5°   Ceiling: 1500
Heat Index: -1°   Visibility: 4mi
Dew Point: -2°   Wind: 8mph
Humidity: 92%   Direction: 330°NNW
Pressure: 30.16"   Gusts: NA
Location:  40.92°N, 111.87°W
Report Text: KSLC 231436Z 33007KT 4SM R34R/5000VP6000FT -SN BR BKN015 OVC030 M01/M02 A3016 RMK AO2 P0001 T10061017
Loading
Personal Weather Stations






























Interactive Weather Map New forecast layout! Learn more

10-Day Weather Forecast

Advertisements
Track Severe Weather on mobile